createdAt,value
2022-12-08T00:01:31.699Z,20.03
2022-12-08T00:04:00.004Z,21.77
2022-12-08T00:07:02.768Z,19.83
2022-12-08T00:09:38.285Z,18.90
2022-12-08T00:12:08.158Z,18.57
2022-12-08T00:14:39.891Z,23.13
2022-12-08T00:17:08.841Z,20.50
2022-12-08T00:19:36.927Z,18.40
2022-12-08T00:22:03.844Z,34.17
2022-12-08T00:24:33.335Z,17.33
2022-12-08T00:27:00.670Z,18.60
2022-12-08T00:29:27.826Z,19.17
2022-12-08T00:31:54.824Z,18.10
2022-12-08T00:34:22.817Z,18.47
2022-12-08T00:36:49.922Z,18.00
2022-12-08T00:39:17.575Z,18.37
2022-12-08T00:42:03.504Z,20.90
2022-12-08T00:44:30.408Z,15.93
2022-12-08T00:46:57.522Z,19.80
2022-12-08T00:49:24.626Z,17.03
2022-12-08T00:51:52.449Z,17.20
2022-12-08T00:54:20.140Z,23.00
2022-12-08T00:56:47.199Z,23.07
2022-12-08T00:59:14.369Z,20.63
2022-12-08T01:01:43.479Z,18.63
2022-12-08T01:04:15.503Z,22.43
2022-12-08T01:06:47.762Z,19.93
2022-12-08T01:09:16.115Z,22.07
2022-12-08T01:11:44.679Z,20.70
2022-12-08T01:14:12.692Z,21.57
2022-12-08T01:16:41.965Z,20.97
2022-12-08T01:19:14.150Z,23.27
2022-12-08T01:21:42.579Z,25.13
2022-12-08T01:24:17.533Z,23.00
2022-12-08T01:26:45.011Z,23.83
2022-12-08T01:29:12.473Z,21.63
2022-12-08T01:31:41.119Z,27.13
2022-12-08T01:34:10.857Z,28.40
2022-12-08T01:36:38.478Z,27.50
2022-12-08T01:39:08.654Z,29.23
2022-12-08T01:41:38.024Z,24.23
2022-12-08T01:44:11.346Z,30.70
2022-12-08T01:46:41.881Z,27.53
2022-12-08T01:49:40.973Z,33.87
2022-12-08T01:52:16.442Z,34.83
2022-12-08T01:54:48.556Z,34.60
2022-12-08T01:57:46.352Z,32.10
2022-12-08T02:00:16.531Z,36.00
2022-12-08T02:03:05.269Z,34.57
2022-12-08T02:05:35.103Z,34.87
2022-12-08T02:08:07.023Z,37.30
2022-12-08T02:10:36.685Z,40.30
2022-12-08T02:13:06.054Z,35.30
2022-12-08T02:15:44.866Z,38.47
2022-12-08T02:18:17.568Z,38.67
2022-12-08T02:21:06.206Z,35.17
2022-12-08T02:23:44.973Z,41.63
2022-12-08T02:26:56.739Z,40.53
2022-12-08T02:29:58.705Z,36.23
2022-12-08T02:32:52.958Z,44.23
2022-12-08T02:35:26.870Z,37.73
2022-12-08T02:38:16.746Z,35.10
2022-12-08T02:40:52.177Z,39.40
2022-12-08T02:43:30.911Z,47.77
2022-12-08T02:46:02.370Z,37.57
2022-12-08T02:48:30.330Z,40.80
2022-12-08T02:50:57.270Z,40.87
2022-12-08T02:53:24.150Z,40.40
2022-12-08T02:56:14.984Z,38.00
2022-12-08T02:59:22.121Z,44.50
2022-12-08T03:02:30.232Z,45.87
2022-12-08T03:05:12.356Z,34.13
2022-12-08T03:08:03.884Z,38.20
2022-12-08T03:10:58.585Z,35.57
2022-12-08T03:13:45.427Z,35.97
2022-12-08T03:16:18.051Z,33.33
2022-12-08T03:18:51.958Z,29.73
2022-12-08T03:21:20.748Z,30.47
2022-12-08T03:23:50.778Z,32.33
2022-12-08T03:26:30.180Z,39.60
2022-12-08T03:28:58.035Z,37.93
2022-12-08T03:31:28.889Z,35.03
2022-12-08T03:33:58.539Z,33.57
2022-12-08T03:36:25.924Z,28.27
2022-12-08T03:38:54.353Z,33.63
2022-12-08T03:41:22.607Z,36.07
2022-12-08T03:43:54.364Z,34.47
2022-12-08T03:48:52.528Z,30.80
2022-12-08T03:51:19.708Z,30.20
2022-12-08T03:53:47.201Z,29.90
2022-12-08T03:56:23.488Z,32.27
2022-12-08T03:58:53.744Z,28.47
2022-12-08T04:01:21.405Z,27.23
2022-12-08T04:03:49.067Z,32.20
2022-12-08T04:06:16.718Z,36.77
2022-12-08T04:08:43.500Z,30.77
2022-12-08T04:11:10.546Z,28.40
2022-12-08T04:13:39.313Z,30.57
2022-12-08T04:16:06.965Z,28.97
2022-12-08T04:18:34.786Z,29.57
2022-12-08T04:21:02.245Z,30.63
2022-12-08T04:23:28.992Z,30.30
2022-12-08T04:25:55.823Z,29.83
2022-12-08T04:28:22.767Z,33.27
2022-12-08T04:30:49.842Z,25.60
2022-12-08T04:33:17.209Z,27.80
2022-12-08T04:35:44.147Z,30.50
2022-12-08T04:38:11.259Z,25.73
2022-12-08T04:40:38.179Z,27.00
2022-12-08T04:43:05.126Z,28.03
2022-12-08T04:45:32.298Z,24.03
2022-12-08T04:48:00.097Z,29.23
2022-12-08T04:50:27.795Z,25.47
2022-12-08T04:52:54.725Z,21.40
2022-12-08T04:55:21.587Z,25.63
2022-12-08T04:57:48.675Z,22.17
2022-12-08T05:00:15.834Z,24.67
2022-12-08T05:02:42.864Z,21.83
2022-12-08T05:05:10.602Z,25.97
2022-12-08T05:07:37.654Z,25.50
2022-12-08T05:10:05.595Z,22.77
2022-12-08T05:12:33.189Z,24.70
2022-12-08T05:15:00.001Z,23.30
2022-12-08T05:17:26.807Z,22.30
2022-12-08T05:19:53.661Z,25.57
2022-12-08T05:22:23.547Z,23.10
2022-12-08T05:24:53.168Z,20.80
2022-12-08T05:27:19.977Z,24.07
2022-12-08T05:29:48.155Z,23.17
2022-12-08T05:32:14.987Z,23.27
2022-12-08T05:34:41.944Z,22.70
2022-12-08T05:37:08.758Z,29.80
2022-12-08T05:39:35.522Z,22.33
2022-12-08T05:42:02.343Z,22.90
2022-12-08T05:44:29.249Z,21.97
2022-12-08T05:46:56.125Z,31.43
2022-12-08T05:49:22.964Z,22.80
2022-12-08T05:51:49.788Z,21.90
2022-12-08T05:54:16.702Z,23.33
2022-12-08T05:56:43.663Z,21.37
2022-12-08T05:59:10.573Z,24.43
2022-12-08T06:01:37.626Z,28.73
2022-12-08T06:04:05.143Z,24.43
2022-12-08T06:06:34.886Z,23.10
2022-12-08T06:09:03.751Z,25.33
2022-12-08T06:11:31.429Z,29.73
2022-12-08T06:13:59.782Z,27.90
2022-12-08T06:16:27.823Z,29.87
2022-12-08T06:18:54.899Z,29.47
2022-12-08T06:21:21.820Z,28.63
2022-12-08T06:23:53.889Z,28.87
2022-12-08T06:26:24.162Z,27.70
2022-12-08T06:28:52.000Z,25.40
2022-12-08T06:31:22.611Z,32.60
2022-12-08T06:33:50.744Z,29.40
2022-12-08T06:36:20.814Z,29.87
2022-12-08T06:38:47.635Z,30.57
2022-12-08T06:41:15.171Z,30.77
2022-12-08T06:43:42.692Z,25.33
2022-12-08T06:46:13.511Z,26.87
2022-12-08T06:48:40.485Z,25.60
2022-12-08T06:51:13.871Z,27.13
2022-12-08T06:53:41.721Z,33.40
2022-12-08T06:56:09.204Z,31.77
2022-12-08T06:58:36.404Z,27.53
2022-12-08T07:01:09.161Z,29.13
2022-12-08T07:03:37.145Z,26.23
2022-12-08T07:06:04.812Z,27.77
2022-12-08T07:08:32.838Z,29.23
2022-12-08T07:10:59.885Z,28.67
2022-12-08T07:13:26.799Z,32.70
2022-12-08T07:15:53.666Z,30.53
2022-12-08T07:18:23.446Z,25.93
2022-12-08T07:20:52.849Z,26.70
2022-12-08T07:23:19.640Z,23.90
2022-12-08T07:25:46.465Z,21.70
2022-12-08T07:28:13.284Z,30.13
2022-12-08T07:30:40.305Z,24.63
2022-12-08T07:33:07.174Z,22.50
2022-12-08T07:35:35.245Z,27.07
2022-12-08T07:38:02.495Z,21.30
2022-12-08T07:40:29.501Z,19.10
2022-12-08T07:42:56.344Z,20.50
2022-12-08T07:45:29.789Z,20.67
2022-12-08T07:47:58.307Z,20.90
2022-12-08T07:50:25.093Z,19.77
2022-12-08T07:52:51.844Z,19.47
2022-12-08T07:55:18.633Z,16.17
2022-12-08T07:57:45.397Z,16.33
2022-12-08T08:00:12.804Z,15.63
2022-12-08T08:02:40.114Z,17.23
2022-12-08T08:05:07.671Z,17.37
2022-12-08T08:07:34.670Z,19.03
2022-12-08T08:10:01.599Z,17.93
2022-12-08T08:12:32.519Z,20.17
2022-12-08T08:15:01.081Z,17.73
2022-12-08T08:17:28.840Z,15.70
2022-12-08T08:19:55.884Z,17.97
2022-12-08T08:22:22.706Z,16.33
2022-12-08T08:24:49.740Z,15.33
2022-12-08T08:27:16.631Z,15.70
2022-12-08T08:29:43.508Z,21.37
2022-12-08T08:32:10.527Z,14.13
2022-12-08T08:34:37.511Z,11.40
2022-12-08T08:37:04.364Z,15.47
2022-12-08T08:39:31.928Z,16.10
2022-12-08T08:41:58.834Z,15.77
2022-12-08T08:44:25.666Z,17.80
2022-12-08T08:46:52.518Z,18.53
2022-12-08T08:49:23.089Z,18.63
2022-12-08T08:51:50.889Z,23.80
2022-12-08T08:54:17.780Z,16.83
2022-12-08T08:56:44.578Z,18.47
2022-12-08T08:59:11.427Z,19.80
2022-12-08T09:01:38.309Z,20.23
2022-12-08T09:04:05.440Z,18.17
2022-12-08T09:06:32.595Z,25.93
2022-12-08T09:08:59.430Z,25.70
2022-12-08T09:11:26.278Z,24.87
2022-12-08T09:13:54.396Z,25.03
2022-12-08T09:16:22.406Z,29.53
2022-12-08T09:18:49.772Z,29.80
2022-12-08T09:21:22.435Z,36.00
2022-12-08T09:23:55.809Z,27.97
2022-12-08T09:26:23.246Z,35.70
2022-12-08T09:28:53.821Z,33.00
2022-12-08T09:31:22.058Z,31.80
2022-12-08T09:33:51.543Z,37.77
2022-12-08T09:36:18.420Z,36.93
2022-12-08T09:38:46.627Z,34.77
2022-12-08T09:41:50.924Z,32.43
2022-12-08T09:44:57.309Z,35.50
2022-12-08T09:47:32.121Z,36.53
2022-12-08T09:50:07.561Z,29.70
2022-12-08T09:52:41.473Z,30.50
2022-12-08T09:55:46.863Z,38.67
2022-12-08T09:58:25.844Z,31.80
2022-12-08T10:00:52.805Z,28.03
2022-12-08T10:03:29.424Z,30.57
2022-12-08T10:06:33.870Z,27.87
2022-12-08T10:09:12.838Z,25.97
2022-12-08T10:12:17.926Z,29.33
2022-12-08T10:15:16.525Z,23.10
2022-12-08T10:17:51.066Z,25.37
2022-12-08T10:20:26.961Z,27.00
2022-12-08T10:23:05.318Z,26.07
2022-12-08T10:25:56.408Z,22.43
2022-12-08T10:28:23.236Z,31.20
2022-12-08T10:30:50.060Z,34.50
2022-12-08T10:33:23.701Z,31.30
2022-12-08T10:35:58.623Z,30.13
2022-12-08T10:38:36.944Z,32.17
2022-12-08T10:41:11.652Z,34.90
2022-12-08T10:43:55.823Z,35.03
2022-12-08T10:46:27.756Z,29.07
2022-12-08T10:49:13.072Z,34.00
2022-12-08T10:51:42.563Z,35.10
2022-12-08T10:54:42.023Z,36.37
2022-12-08T10:57:21.690Z,38.77
2022-12-08T10:59:48.551Z,37.50
2022-12-08T11:02:31.316Z,38.03
2022-12-08T11:05:00.175Z,41.23
2022-12-08T11:07:27.529Z,46.00
2022-12-08T11:09:58.287Z,34.87
2022-12-08T11:12:29.823Z,39.70
2022-12-08T11:15:03.426Z,39.57
2022-12-08T11:17:39.613Z,40.40
2022-12-08T11:20:09.879Z,49.33
2022-12-08T11:22:45.154Z,36.60
2022-12-08T11:25:26.420Z,42.20
2022-12-08T11:27:59.099Z,39.63
2022-12-08T11:30:33.716Z,38.53
2022-12-08T11:33:13.681Z,36.63
2022-12-08T11:35:44.394Z,34.13
2022-12-08T11:38:23.911Z,34.57
2022-12-08T11:41:16.792Z,36.03
2022-12-08T11:43:51.621Z,35.37
2022-12-08T11:46:30.339Z,34.87
2022-12-08T11:49:06.227Z,37.90
2022-12-08T11:51:35.601Z,43.40
2022-12-08T11:54:11.757Z,32.43
2022-12-08T11:56:44.657Z,36.33
2022-12-08T11:59:31.752Z,34.77
2022-12-08T12:02:01.518Z,33.97
2022-12-08T12:04:32.408Z,35.57
2022-12-08T12:07:36.675Z,30.10
2022-12-08T12:10:24.068Z,20.83
2022-12-08T12:12:54.072Z,20.43
2022-12-08T12:15:42.599Z,20.57
2022-12-08T12:18:18.310Z,18.10
2022-12-08T12:21:02.303Z,20.83
2022-12-08T12:24:04.978Z,22.57
2022-12-08T12:26:52.217Z,20.17
2022-12-08T12:29:23.878Z,20.07
2022-12-08T12:32:04.613Z,19.57
2022-12-08T12:34:51.250Z,23.43
2022-12-08T12:37:23.583Z,19.97
2022-12-08T12:39:52.900Z,18.90
2022-12-08T12:42:38.453Z,20.13
2022-12-08T12:45:16.265Z,20.37
2022-12-08T12:47:59.377Z,26.00
2022-12-08T12:50:37.125Z,18.67
2022-12-08T12:53:26.807Z,17.83
2022-12-08T12:56:02.452Z,19.10
2022-12-08T12:58:31.821Z,21.23
2022-12-08T13:01:13.713Z,23.13
2022-12-08T13:03:42.363Z,22.23
2022-12-08T13:06:15.096Z,26.40
2022-12-08T13:08:52.512Z,24.23
2022-12-08T13:11:22.820Z,29.33
2022-12-08T13:14:35.733Z,23.23
2022-12-08T13:17:08.506Z,25.43
2022-12-08T13:19:38.040Z,26.33
2022-12-08T13:22:24.828Z,22.03
2022-12-08T13:24:51.740Z,24.43
2022-12-08T13:27:34.173Z,29.33
2022-12-08T13:30:44.405Z,33.40
2022-12-08T13:33:18.966Z,28.33
2022-12-08T13:36:08.243Z,26.03
2022-12-08T13:38:38.521Z,24.60
2022-12-08T13:41:13.845Z,26.43
2022-12-08T13:45:18.110Z,26.70
2022-12-08T13:47:31.750Z,23.07
2022-12-08T13:53:56.897Z,24.30
2022-12-08T13:58:42.366Z,26.83
2022-12-08T14:01:14.023Z,31.57
2022-12-08T14:04:22.094Z,29.03
2022-12-08T14:06:48.091Z,25.63
2022-12-08T14:09:18.869Z,28.70
2022-12-08T14:11:58.221Z,24.83
2022-12-08T14:15:02.498Z,25.27
2022-12-08T14:17:21.789Z,18.63
2022-12-08T14:20:05.240Z,17.70
2022-12-08T14:22:38.359Z,20.53
2022-12-08T14:25:06.921Z,21.73
2022-12-08T14:27:36.521Z,22.00
2022-12-08T14:30:21.493Z,21.10
2022-12-08T14:32:58.760Z,22.40
2022-12-08T14:35:28.896Z,16.93
2022-12-08T14:38:01.118Z,19.93
2022-12-08T14:40:28.830Z,19.53
2022-12-08T14:43:08.080Z,22.40
2022-12-08T14:45:46.376Z,24.57
2022-12-08T14:48:28.077Z,25.53
2022-12-08T14:51:03.875Z,25.03
2022-12-08T14:54:00.123Z,24.60
2022-12-08T14:56:33.757Z,26.47
2022-12-08T14:59:11.846Z,23.47
2022-12-08T15:01:39.234Z,27.13
2022-12-08T15:04:18.064Z,27.67
2022-12-08T15:06:54.499Z,30.93
2022-12-08T15:09:40.986Z,26.90
2022-12-08T15:12:26.761Z,27.77
2022-12-08T15:14:57.824Z,27.17
2022-12-08T15:17:41.178Z,30.00
2022-12-08T15:20:34.616Z,28.03
2022-12-08T15:23:02.737Z,29.83
2022-12-08T15:25:29.942Z,24.87
2022-12-08T15:27:58.014Z,28.90
2022-12-08T15:30:28.713Z,25.27
2022-12-08T15:32:56.469Z,28.23
2022-12-08T15:35:23.400Z,34.83
2022-12-08T15:37:52.948Z,34.93
2022-12-08T15:40:23.010Z,30.93
2022-12-08T15:42:49.975Z,31.77
2022-12-08T15:45:17.788Z,28.47
2022-12-08T15:47:45.784Z,29.57
2022-12-08T15:50:21.380Z,29.77
2022-12-08T15:52:49.805Z,30.27
2022-12-08T15:55:19.587Z,31.23
2022-12-08T15:58:52.395Z,31.40
2022-12-08T16:00:54.497Z,28.43
2022-12-08T16:09:14.156Z,32.63
2022-12-08T16:12:09.415Z,32.60
2022-12-08T16:17:26.493Z,38.73
2022-12-08T16:19:53.641Z,36.90
2022-12-08T16:25:20.392Z,31.67
2022-12-08T16:28:29.616Z,30.07
2022-12-08T16:30:37.530Z,27.10
2022-12-08T16:33:25.391Z,28.03
2022-12-08T16:36:01.836Z,25.53
2022-12-08T16:38:30.961Z,28.03
2022-12-08T16:41:54.399Z,31.93
2022-12-08T16:44:21.550Z,27.40
2022-12-08T16:47:08.370Z,30.57
2022-12-08T16:49:52.299Z,25.47
2022-12-08T16:52:19.446Z,27.40
2022-12-08T16:54:46.386Z,33.27
2022-12-08T16:57:13.407Z,29.70
2022-12-08T16:59:40.229Z,38.57
2022-12-08T17:02:08.769Z,28.67
2022-12-08T17:04:37.339Z,27.10
2022-12-08T17:07:04.172Z,28.63
2022-12-08T17:09:32.135Z,30.13
2022-12-08T17:12:03.708Z,33.77
2022-12-08T17:14:34.525Z,33.03
2022-12-08T17:17:01.425Z,30.93
2022-12-08T17:19:28.440Z,47.70
2022-12-08T17:21:55.248Z,26.40
2022-12-08T17:24:23.146Z,28.43
2022-12-08T17:26:51.595Z,33.77
2022-12-08T17:29:18.800Z,30.77
2022-12-08T17:31:45.805Z,29.60
2022-12-08T17:34:12.728Z,34.40
2022-12-08T17:36:39.792Z,31.87
2022-12-08T17:39:11.018Z,31.87
2022-12-08T17:41:40.565Z,26.80
2022-12-08T17:44:13.183Z,27.30
2022-12-08T17:46:43.417Z,32.03
2022-12-08T17:49:20.515Z,26.20
2022-12-08T17:51:52.786Z,33.47
2022-12-08T17:54:23.454Z,27.83
2022-12-08T17:56:51.358Z,27.40
2022-12-08T17:59:18.715Z,30.50
2022-12-08T18:01:45.630Z,28.87
2022-12-08T18:04:12.851Z,26.03
2022-12-08T18:06:40.437Z,31.13
2022-12-08T18:09:08.175Z,27.03
2022-12-08T18:11:36.118Z,32.73
2022-12-08T18:14:09.490Z,27.67
2022-12-08T18:16:43.562Z,28.37
2022-12-08T18:19:11.713Z,29.47
2022-12-08T18:21:38.674Z,33.23
2022-12-08T18:24:06.464Z,33.73
2022-12-08T18:26:33.871Z,38.80
2022-12-08T18:29:00.676Z,32.43
2022-12-08T18:31:27.665Z,37.10
2022-12-08T18:33:54.529Z,38.20
2022-12-08T18:36:25.508Z,47.63
2022-12-08T18:38:53.254Z,37.13
2022-12-08T18:41:24.465Z,39.53
2022-12-08T18:43:53.201Z,47.03
2022-12-08T18:46:20.686Z,38.50
2022-12-08T18:48:51.877Z,35.73
2022-12-08T18:51:21.786Z,38.70
2022-12-08T18:53:52.143Z,34.83
2022-12-08T18:56:23.993Z,39.90
2022-12-08T18:58:51.033Z,34.53
2022-12-08T19:01:18.320Z,40.83
2022-12-08T19:04:04.626Z,36.93
2022-12-08T19:06:32.994Z,38.80
2022-12-08T19:08:59.778Z,38.50
2022-12-08T19:11:28.836Z,37.07
2022-12-08T19:13:56.068Z,35.27
2022-12-08T19:16:23.288Z,37.23
2022-12-08T19:18:53.252Z,43.67
2022-12-08T19:21:20.609Z,41.07
2022-12-08T19:23:47.718Z,37.37
2022-12-08T19:26:14.725Z,36.40
2022-12-08T19:28:41.537Z,35.53
2022-12-08T19:31:10.409Z,38.20
2022-12-08T19:33:38.459Z,39.43
2022-12-08T19:36:08.674Z,46.10
2022-12-08T19:38:56.001Z,48.97
2022-12-08T19:41:42.427Z,42.73
2022-12-08T19:44:48.415Z,42.13
2022-12-08T19:47:18.361Z,31.80
2022-12-08T19:49:45.650Z,40.90
2022-12-08T19:52:12.515Z,36.57
2022-12-08T19:54:39.528Z,38.37
2022-12-08T19:57:06.405Z,38.27
2022-12-08T19:59:33.364Z,33.33
2022-12-08T20:02:00.434Z,32.30
2022-12-08T20:04:27.974Z,28.93
2022-12-08T20:06:56.944Z,33.33
2022-12-08T20:09:24.463Z,31.27
2022-12-08T20:11:54.630Z,36.33
2022-12-08T20:14:23.271Z,33.00
2022-12-08T20:16:51.121Z,32.97
2022-12-08T20:19:18.603Z,32.63
2022-12-08T20:21:45.648Z,33.40
2022-12-08T20:24:12.601Z,43.83
2022-12-08T20:26:39.588Z,31.40
2022-12-08T20:29:06.562Z,31.97
2022-12-08T20:31:33.877Z,32.27
2022-12-08T20:34:01.567Z,34.27
2022-12-08T20:36:28.605Z,36.37
2022-12-08T20:38:55.930Z,37.33
2022-12-08T20:41:23.876Z,32.40
2022-12-08T20:43:54.054Z,30.10
2022-12-08T20:46:23.918Z,39.47
2022-12-08T20:48:55.354Z,42.07
2022-12-08T20:51:24.668Z,47.90
2022-12-08T20:53:55.471Z,51.40
2022-12-08T20:56:23.978Z,38.40
2022-12-08T20:58:54.010Z,33.07
2022-12-08T21:01:24.809Z,48.73
2022-12-08T21:03:53.020Z,28.60
2022-12-08T21:06:27.013Z,33.23
2022-12-08T21:08:54.614Z,30.00
2022-12-08T21:11:21.956Z,27.90
2022-12-08T21:13:48.895Z,34.90
2022-12-08T21:16:16.166Z,31.83
2022-12-08T21:18:43.260Z,25.03
2022-12-08T21:21:14.339Z,28.77
2022-12-08T21:23:42.790Z,26.43
2022-12-08T21:26:21.790Z,24.80
2022-12-08T21:28:49.158Z,36.47
2022-12-08T21:31:18.945Z,35.00
2022-12-08T21:33:46.145Z,27.47
2022-12-08T21:36:16.483Z,31.97
2022-12-08T21:38:44.259Z,28.00
2022-12-08T21:41:14.577Z,28.67
2022-12-08T21:43:42.469Z,25.87
2022-12-08T21:46:17.207Z,25.07
2022-12-08T21:48:44.515Z,28.43
2022-12-08T21:51:11.595Z,26.00
2022-12-08T21:53:38.661Z,27.93
2022-12-08T21:56:09.265Z,25.07
2022-12-08T21:58:36.347Z,29.07
2022-12-08T22:01:08.072Z,31.87
2022-12-08T22:03:35.937Z,28.77
2022-12-08T22:06:12.323Z,28.90
2022-12-08T22:08:40.351Z,27.30
2022-12-08T22:11:08.411Z,26.33
2022-12-08T22:13:36.345Z,30.43
2022-12-08T22:16:05.854Z,34.90
2022-12-08T22:18:34.298Z,25.63
2022-12-08T22:21:01.866Z,30.03
2022-12-08T22:23:29.276Z,34.77
2022-12-08T22:26:00.198Z,27.10
2022-12-08T22:28:28.381Z,30.87
2022-12-08T22:30:55.171Z,28.03
2022-12-08T22:33:22.359Z,37.30
2022-12-08T22:36:04.726Z,31.73
2022-12-08T22:38:35.146Z,31.57
2022-12-08T22:41:05.063Z,30.47
2022-12-08T22:43:32.207Z,29.17
2022-12-08T22:45:59.264Z,31.30
2022-12-08T22:48:26.497Z,33.37
2022-12-08T22:50:59.691Z,26.03
2022-12-08T22:53:27.431Z,29.93
2022-12-08T22:55:54.613Z,32.20
2022-12-08T22:58:21.829Z,35.23
2022-12-08T23:00:48.838Z,33.17
2022-12-08T23:03:15.755Z,31.90
2022-12-08T23:05:43.126Z,32.93
2022-12-08T23:08:15.442Z,30.83
2022-12-08T23:10:42.834Z,32.67
2022-12-08T23:13:09.832Z,23.97
2022-12-08T23:15:37.022Z,33.13
2022-12-08T23:18:04.421Z,24.27
2022-12-08T23:20:31.590Z,29.20
2022-12-08T23:22:58.427Z,35.83
2022-12-08T23:25:25.538Z,29.20
2022-12-08T23:27:52.930Z,26.80
2022-12-08T23:30:19.813Z,28.07
2022-12-08T23:32:46.661Z,32.80
2022-12-08T23:35:13.633Z,31.40
2022-12-08T23:37:40.733Z,30.70
2022-12-08T23:40:08.890Z,28.43
2022-12-08T23:42:36.140Z,31.70
2022-12-08T23:45:04.546Z,30.57
2022-12-08T23:47:31.760Z,29.30
2022-12-08T23:49:58.694Z,32.03
2022-12-08T23:52:25.672Z,30.73
2022-12-08T23:54:54.600Z,27.90
2022-12-08T23:57:22.147Z,33.53
2022-12-08T23:59:50.176Z,29.07
